Time,TemperatureF,DewpointF,PressureIn,WindDirection,WindDirectionDegrees,WindSpeedMPH,WindSpeedGustMPH,Humidity,HourlyPrecipIn,Conditions,Clouds,dailyrainin,SoftwareType,DateUTC
2013-11-24 00:12:00,29.8,9.0,29.73,SW,235,3.0,17.0,41,0.00,,,0.00,weatherlink.com 1.10,2013-11-24 05:12:00,
2013-11-24 00:27:00,29.6,8.0,29.73,WNW,295,4.0,14.0,41,0.00,,,0.00,weatherlink.com 1.10,2013-11-24 05:27:00,
2013-11-24 00:42:00,29.3,9.0,29.72,West,281,9.0,18.0,42,0.00,,,0.00,weatherlink.com 1.10,2013-11-24 05:42:00,
2013-11-24 00:57:00,29.1,9.0,29.72,WNW,291,7.0,11.0,43,0.00,,,0.00,weatherlink.com 1.10,2013-11-24 05:57:00,
2013-11-24 01:12:00,28.7,11.0,29.73,WNW,301,8.0,16.0,47,0.00,,,0.00,weatherlink.com 1.10,2013-11-24 06:12:00,
2013-11-24 01:27:00,28.5,11.0,29.73,West,273,6.0,15.0,49,0.00,,,0.00,weatherlink.com 1.10,2013-11-24 06:27:00,
2013-11-24 01:42:00,28.1,12.0,29.73,NW,313,4.0,9.0,50,0.00,,,0.00,weatherlink.com 1.10,2013-11-24 06:42:00,
2013-11-24 01:57:00,27.8,12.0,29.73,West,280,1.0,9.0,51,0.00,,,0.00,weatherlink.com 1.10,2013-11-24 06:57:00,
2013-11-24 02:12:00,27.5,11.0,29.73,WNW,285,4.0,9.0,50,0.00,,,0.00,weatherlink.com 1.10,2013-11-24 07:12:00,
2013-11-24 02:27:00,27.3,10.0,29.74,WNW,288,10.0,11.0,48,0.00,,,0.00,weatherlink.com 1.10,2013-11-24 07:27:00,
2013-11-24 02:42:00,27.2,10.0,29.74,WNW,297,5.0,11.0,48,0.00,,,0.00,weatherlink.com 1.10,2013-11-24 07:42:00,
2013-11-24 02:57:00,27.1,11.0,29.74,NW,307,9.0,21.0,50,0.00,,,0.00,weatherlink.com 1.10,2013-11-24 07:57:00,
2013-11-24 03:27:00,26.5,11.0,29.74,West,261,11.0,18.0,52,0.00,,,0.00,weatherlink.com 1.10,2013-11-24 08:27:00,
2013-11-24 03:42:00,26.1,11.0,29.74,NW,304,2.0,15.0,53,0.00,,,0.00,weatherlink.com 1.10,2013-11-24 08:42:00,
2013-11-24 03:57:00,25.7,14.0,29.75,West,278,7.0,17.0,61,0.00,,,0.00,weatherlink.com 1.10,2013-11-24 08:57:00,
2013-11-24 04:12:00,24.0,17.0,29.75,WNW,288,6.0,13.0,74,0.00,,,0.00,weatherlink.com 1.10,2013-11-24 09:12:00,
2013-11-24 04:27:00,23.6,18.0,29.76,West,271,5.0,10.0,79,0.00,,,0.00,weatherlink.com 1.10,2013-11-24 09:27:00,
2013-11-24 04:42:00,23.4,18.0,29.76,NW,315,4.0,17.0,79,0.00,,,0.00,weatherlink.com 1.10,2013-11-24 09:42:00,
2013-11-24 04:57:00,23.5,17.0,29.77,WNW,285,14.0,16.0,75,0.00,,,0.00,weatherlink.com 1.10,2013-11-24 09:57:00,
2013-11-24 05:12:00,23.4,14.0,29.77,NW,306,7.0,22.0,66,0.00,,,0.00,weatherlink.com 1.10,2013-11-24 10:12:00,
2013-11-24 05:27:00,22.9,10.0,29.77,WNW,290,9.0,20.0,59,0.00,,,0.00,weatherlink.com 1.10,2013-11-24 10:27:00,
2013-11-24 05:43:00,22.5,9.0,29.77,WNW,297,9.0,18.0,56,0.00,,,0.00,weatherlink.com 1.10,2013-11-24 10:43:00,
2013-11-24 05:58:00,22.2,8.0,29.78,West,266,6.0,14.0,55,0.00,,,0.00,weatherlink.com 1.10,2013-11-24 10:58:00,
2013-11-24 06:13:00,22.1,8.0,29.79,WNW,298,4.0,22.0,54,0.00,,,0.00,weatherlink.com 1.10,2013-11-24 11:13:00,
2013-11-24 06:28:00,21.9,8.0,29.79,WNW,285,6.0,18.0,56,0.00,,,0.00,weatherlink.com 1.10,2013-11-24 11:28:00,
2013-11-24 06:43:00,21.7,8.0,29.80,WNW,291,9.0,18.0,57,0.00,,,0.00,weatherlink.com 1.10,2013-11-24 11:43:00,
2013-11-24 06:58:00,21.5,9.0,29.79,WNW,299,11.0,17.0,60,0.00,,,0.00,weatherlink.com 1.10,2013-11-24 11:58:00,
2013-11-24 07:13:00,21.4,9.0,29.80,West,269,10.0,28.0,60,0.00,,,0.00,weatherlink.com 1.10,2013-11-24 12:13:00,
2013-11-24 07:28:00,21.5,9.0,29.80,NNW,328,11.0,20.0,60,0.00,,,0.00,weatherlink.com 1.10,2013-11-24 12:28:00,
2013-11-24 07:43:00,21.5,9.0,29.81,NNW,340,4.0,24.0,59,0.00,,,0.00,weatherlink.com 1.10,2013-11-24 12:43:00,
2013-11-24 07:58:00,21.7,8.0,29.82,WNW,294,14.0,20.0,56,0.00,,,0.00,weatherlink.com 1.10,2013-11-24 12:58:00,
2013-11-24 08:13:00,21.7,8.0,29.81,West,276,7.0,27.0,55,0.00,,,0.00,weatherlink.com 1.10,2013-11-24 13:13:00,
2013-11-24 08:28:00,21.7,8.0,29.82,NW,305,4.0,22.0,55,0.00,,,0.00,weatherlink.com 1.10,2013-11-24 13:28:00,
2013-11-24 08:43:00,21.8,7.0,29.82,West,276,10.0,25.0,54,0.00,,,0.00,weatherlink.com 1.10,2013-11-24 13:43:00,
2013-11-24 08:58:00,21.8,6.0,29.82,WNW,294,16.0,25.0,51,0.00,,,0.00,weatherlink.com 1.10,2013-11-24 13:58:00,
2013-11-24 09:13:00,22.3,7.0,29.83,WNW,296,9.0,19.0,51,0.00,,,0.00,weatherlink.com 1.10,2013-11-24 14:13:00,
2013-11-24 09:28:00,22.1,6.0,29.83,WNW,285,10.0,28.0,51,0.00,,,0.00,weatherlink.com 1.10,2013-11-24 14:28:00,
2013-11-24 09:43:00,22.4,6.0,29.84,West,262,8.0,24.0,49,0.00,,,0.00,weatherlink.com 1.10,2013-11-24 14:43:00,
2013-11-24 09:58:00,22.3,4.0,29.84,NW,308,7.0,28.0,46,0.00,,,0.00,weatherlink.com 1.10,2013-11-24 14:58:00,
2013-11-24 10:13:00,22.7,4.0,29.84,West,260,12.0,22.0,44,0.00,,,0.00,weatherlink.com 1.10,2013-11-24 15:13:00,
2013-11-24 10:28:00,22.5,4.0,29.84,WNW,284,7.0,27.0,44,0.00,,,0.00,weatherlink.com 1.10,2013-11-24 15:28:00,
2013-11-24 10:43:00,23.3,4.0,29.84,WNW,298,17.0,23.0,43,0.00,,,0.00,weatherlink.com 1.10,2013-11-24 15:43:00,
2013-11-24 12:09:00,24.5,3.0,29.84,West,277,7.0,27.0,40,0.00,,,0.00,weatherlink.com 1.10,2013-11-24 17:09:00,
2013-11-24 12:21:00,25.0,4.0,29.85,NNW,335,14.0,23.0,40,0.00,,,0.00,weatherlink.com 1.10,2013-11-24 17:21:00,
2013-11-24 12:36:00,25.0,3.0,29.85,NW,325,10.0,29.0,38,0.00,,,0.00,weatherlink.com 1.10,2013-11-24 17:36:00,
2013-11-24 12:51:00,24.6,2.0,29.85,NW,306,11.0,24.0,37,0.00,,,0.00,weatherlink.com 1.10,2013-11-24 17:51:00,
2013-11-24 13:06:00,24.8,2.0,29.86,WNW,301,6.0,27.0,37,0.00,,,0.00,weatherlink.com 1.10,2013-11-24 18:06:00,
2013-11-24 13:21:00,25.2,2.0,29.86,NW,308,10.0,26.0,36,0.00,,,0.00,weatherlink.com 1.10,2013-11-24 18:21:00,
2013-11-24 13:36:00,25.2,2.0,29.86,WNW,298,20.0,30.0,36,0.00,,,0.00,weatherlink.com 1.10,2013-11-24 18:36:00,
2013-11-24 13:51:00,25.3,1.0,29.86,WNW,297,19.0,25.0,35,0.00,,,0.00,weatherlink.com 1.10,2013-11-24 18:51:00,
2013-11-24 14:06:00,25.7,-1.0,29.86,NW,321,15.0,31.0,32,0.00,,,0.00,weatherlink.com 1.10,2013-11-24 19:06:00,
2013-11-24 14:21:00,25.7,-1.0,29.88,NNW,339,22.0,37.0,32,0.00,,,0.00,weatherlink.com 1.10,2013-11-24 19:21:00,
2013-11-24 14:36:00,25.9,-1.0,29.88,NW,311,13.0,31.0,31,0.00,,,0.00,weatherlink.com 1.10,2013-11-24 19:36:00,
2013-11-24 14:51:00,25.8,-2.0,29.90,NNW,335,10.0,25.0,30,0.00,,,0.00,weatherlink.com 1.10,2013-11-24 19:51:00,
2013-11-24 15:06:00,25.5,-1.0,29.91,NW,305,10.0,25.0,31,0.00,,,0.00,weatherlink.com 1.10,2013-11-24 20:06:00,
2013-11-24 15:21:00,25.5,-3.0,29.91,NNW,329,22.0,27.0,29,0.00,,,0.00,weatherlink.com 1.10,2013-11-24 20:21:00,
2013-11-24 15:36:00,25.1,-3.0,29.92,WNW,303,9.0,34.0,29,0.00,,,0.00,weatherlink.com 1.10,2013-11-24 20:36:00,
2013-11-24 15:51:00,24.8,-3.0,29.92,NNW,339,9.0,36.0,30,0.00,,,0.00,weatherlink.com 1.10,2013-11-24 20:51:00,
2013-11-24 16:06:00,24.5,-3.0,29.93,NW,305,9.0,30.0,30,0.00,,,0.00,weatherlink.com 1.10,2013-11-24 21:06:00,
2013-11-24 16:21:00,24.5,-2.0,29.94,NW,324,11.0,37.0,31,0.00,,,0.00,weatherlink.com 1.10,2013-11-24 21:21:00,
2013-11-24 16:36:00,24.4,-3.0,29.94,NNW,339,4.0,39.0,30,0.00,,,0.00,weatherlink.com 1.10,2013-11-24 21:36:00,
2013-11-24 16:52:00,24.3,-3.0,29.95,NW,316,2.0,27.0,30,0.00,,,0.00,weatherlink.com 1.10,2013-11-24 21:52:00,
2013-11-24 17:07:00,24.1,-3.0,29.96,West,263,4.0,30.0,31,0.00,,,0.00,weatherlink.com 1.10,2013-11-24 22:07:00,
2013-11-24 17:22:00,24.0,-3.0,29.96,NW,323,9.0,35.0,31,0.00,,,0.00,weatherlink.com 1.10,2013-11-24 22:22:00,
2013-11-24 17:37:00,23.9,-2.0,29.97,WNW,300,7.0,19.0,32,0.00,,,0.00,weatherlink.com 1.10,2013-11-24 22:37:00,
2013-11-24 17:52:00,23.7,-2.0,29.97,WNW,291,6.0,21.0,33,0.00,,,0.00,weatherlink.com 1.10,2013-11-24 22:52:00,
2013-11-24 18:07:00,23.4,-1.0,29.98,NW,308,14.0,23.0,34,0.00,,,0.00,weatherlink.com 1.10,2013-11-24 23:07:00,
2013-11-24 18:22:00,23.4,-1.0,29.99,WNW,284,10.0,26.0,34,0.00,,,0.00,weatherlink.com 1.10,2013-11-24 23:22:00,
2013-11-24 18:37:00,23.4,-1.0,30.00,NNW,335,7.0,29.0,34,0.00,,,0.00,weatherlink.com 1.10,2013-11-24 23:37:00,
2013-11-24 18:52:00,23.2,-1.0,30.00,West,280,12.0,26.0,34,0.00,,,0.00,weatherlink.com 1.10,2013-11-24 23:52:00,
2013-11-24 19:07:00,23.2,-1.0,30.00,NW,310,17.0,27.0,34,0.00,,,0.00,weatherlink.com 1.10,2013-11-25 00:07:00,
2013-11-24 19:22:00,23.1,-2.0,30.00,WNW,287,16.0,24.0,33,0.00,,,0.00,weatherlink.com 1.10,2013-11-25 00:22:00,
2013-11-24 19:37:00,22.8,-2.0,30.01,WNW,293,5.0,33.0,34,0.00,,,0.00,weatherlink.com 1.10,2013-11-25 00:37:00,
2013-11-24 19:52:00,22.5,-1.0,30.02,NNW,335,0.0,18.0,35,0.00,,,0.00,weatherlink.com 1.10,2013-11-25 00:52:00,
2013-11-24 20:23:00,22.3,-2.0,30.03,WNW,293,3.0,19.0,35,0.00,,,0.00,weatherlink.com 1.10,2013-11-25 01:23:00,
2013-11-24 20:38:00,22.1,-2.0,30.04,NNW,328,14.0,24.0,35,0.00,,,0.00,weatherlink.com 1.10,2013-11-25 01:38:00,
2013-11-24 20:53:00,22.0,-2.0,30.03,NW,306,5.0,21.0,35,0.00,,,0.00,weatherlink.com 1.10,2013-11-25 01:53:00,
2013-11-24 21:08:00,21.7,-2.0,30.04,WNW,286,10.0,17.0,36,0.00,,,0.00,weatherlink.com 1.10,2013-11-25 02:08:00,
2013-11-24 21:23:00,21.6,-2.0,30.05,West,273,3.0,29.0,35,0.00,,,0.00,weatherlink.com 1.10,2013-11-25 02:23:00,
2013-11-24 21:38:00,21.5,-2.0,30.05,NW,307,4.0,22.0,36,0.00,,,0.00,weatherlink.com 1.10,2013-11-25 02:38:00,
2013-11-24 21:53:00,21.2,-2.0,30.07,WNW,290,7.0,16.0,36,0.00,,,0.00,weatherlink.com 1.10,2013-11-25 02:53:00,
2013-11-24 22:08:00,21.1,-2.0,30.07,NW,311,6.0,19.0,36,0.00,,,0.00,weatherlink.com 1.10,2013-11-25 03:08:00,
2013-11-24 22:23:00,20.9,-2.0,30.08,NNW,340,11.0,23.0,36,0.00,,,0.00,weatherlink.com 1.10,2013-11-25 03:23:00,
2013-11-24 22:38:00,20.7,-3.0,30.09,WNW,303,11.0,18.0,36,0.00,,,0.00,weatherlink.com 1.10,2013-11-25 03:38:00,
2013-11-24 22:53:00,20.4,-2.0,30.09,NW,311,6.0,15.0,37,0.00,,,0.00,weatherlink.com 1.10,2013-11-25 03:53:00,
2013-11-24 23:08:00,20.2,-2.0,30.09,NNW,329,14.0,19.0,37,0.00,,,0.00,weatherlink.com 1.10,2013-11-25 04:08:00,
2013-11-24 23:23:00,20.2,-2.0,30.11,SSE,168,2.0,20.0,37,0.00,,,0.00,weatherlink.com 1.10,2013-11-25 04:23:00,
2013-11-24 23:39:00,19.9,-2.0,30.11,WNW,294,5.0,18.0,38,0.00,,,0.00,weatherlink.com 1.10,2013-11-25 04:39:00,
2013-11-24 23:54:00,19.7,-2.0,30.12,WNW,301,6.0,16.0,38,0.00,,,0.00,weatherlink.com 1.10,2013-11-25 04:54:00,